Latest Weather Observations for Central Arnhem Plateau

IDD60801

Issued at 6:21 pm CST Wednesday 19 September 2018 (issued every 10 minutes, with the page automatically refreshed every 10 minutes)

About weather observations | Map of weather stations | Latest weather observations for NT | Other Formats
Station Details ID: 014909 Name: CENTRAL ARNHEM PLATEAU Lat: -13.33 Lon: 133.09 Height: 416.0 m
Data from the previous 72 hours. | See also: Recent months at Central Arnhem Plateau
Date/Time
CST
Temp
°C
App
Temp
°C
Dew
Point
°C
Rel
Hum
%
Delta-T
°C
Wind Press
QNH
hPa
Press
MSL
hPa
Rain since
9am
mm
Dir  Spd
km/h
Gust
km/h
Spd
kts
Gust
kts
19/06:00pm 32.0 26.3 -0.9 12 16.0 ESE 19 30 10 16 1011.1 1008.5 0.0
19/05:30pm 33.1 27.1 -1.3 11 16.8 E 20 37 11 20 1010.8 1008.2 0.0
19/05:00pm 33.4 26.9 -2.3 10 17.1 E 22 32 12 17 1010.6 1008.0 0.0
19/04:30pm 33.9 27.8 -2.0 10 17.4 E 20 30 11 16 1010.4 1007.7 0.0
19/04:00pm 34.4 27.1 -3.0 9 17.9 ESE 26 37 14 20 1010.5 1007.9 0.0
19/03:30pm 34.6 27.7 -2.9 9 18.0 SE 24 39 13 21 1010.6 1008.0 0.0
19/03:00pm 34.0 28.0 -3.3 9 17.7 E 19 30 10 16 1010.8 1008.2 0.0
19/02:30pm 34.4 28.2 -3.0 9 17.9 SE 20 32 11 17 1011.2 1008.6 0.0
19/02:00pm 34.8 28.7 -2.7 9 18.0 E 20 32 11 17 1011.7 1009.0 0.0
19/01:30pm 33.4 27.5 -1.0 11 16.9 E 20 30 11 16 1012.2 1009.5 0.0
19/01:00pm 33.3 27.6 -1.1 11 16.8 ENE 19 30 10 16 1012.8 1010.2 0.0
19/12:30pm 33.6 27.7 -0.9 11 17.0 ENE 20 30 11 16 1013.3 1010.7 0.0
19/12:00pm 32.7 25.9 -1.6 11 16.6 ENE 24 37 13 20 1014.0 1011.3 0.0
19/11:30am 31.6 26.1 0.9 14 15.3 ENE 19 26 10 14 1014.7 1012.0 0.0
19/11:00am 30.2 25.4 2.5 17 14.1 E 17 24 9 13 1015.4 1012.8 0.0
19/10:30am 29.8 25.7 4.4 20 13.3 E 15 28 8 15 1015.6 1013.0 0.0
19/10:00am 28.9 27.1 8.0 27 11.6 ENE 7 15 4 8 1015.9 1013.3 0.0
19/09:30am 27.4 26.3 10.6 35 9.6 ENE 7 13 4 7 1015.9 1013.3 0.0
19/09:00am 25.3 25.6 13.5 48 7.0 NE 4 9 2 5 1015.6 1013.0 0.0
19/08:30am 24.4 25.2 15.9 59 5.2 NNW 6 9 3 5 1015.4 1012.8 0.0
19/08:00am 22.6 23.5 16.2 67 3.9 NW 6 7 3 4 1015.1 1012.5 0.0
19/07:30am 20.2 21.5 14.1 68 3.6 CALM 0 0 0 0 1014.8 1012.2 0.0
19/07:00am 18.3 19.1 12.5 69 3.3 CALM 0 0 0 0 1014.5 1011.8 0.0
19/06:30am 17.3 18.0 12.2 72 2.9 CALM 0 0 0 0 1014.2 1011.5 0.0
19/06:00am 17.8 18.2 11.4 66 3.6 CALM 0 0 0 0 1014.0 1011.3 0.0
19/05:30am 19.9 20.1 14.7 72 3.1 W 7 11 4 6 1013.6 1011.0 0.0
19/05:00am 20.2 19.9 14.3 69 3.5 W 9 11 5 6 1013.4 1010.8 0.0
19/04:30am 20.6 20.3 14.3 67 3.7 W 9 13 5 7 1013.4 1010.8 0.0
19/04:00am 20.9 20.3 13.4 62 4.4 W 9 13 5 7 1013.3 1010.7 0.0
19/03:30am 21.2 20.1 12.1 56 5.2 W 9 13 5 7 1013.5 1010.9 0.0
19/03:00am 21.9 20.5 12.2 54 5.6 WNW 11 17 6 9 1013.6 1011.0 0.0
19/02:30am 22.0 20.8 11.7 52 5.9 WNW 9 11 5 6 1014.0 1011.3 0.0
19/02:00am 22.3 20.5 10.8 48 6.5 WNW 11 13 6 7 1014.3 1011.6 0.0
19/01:30am 23.0 20.7 10.4 45 7.1 WNW 13 17 7 9 1014.4 1011.7 0.0
19/01:00am 22.4 20.6 7.8 39 7.8 W 7 9 4 5 1014.7 1012.0 0.0
19/12:30am 20.9 18.3 3.2 31 8.6 NW 6 9 3 5 1014.9 1012.3 0.0
19/12:00am 21.7 18.9 1.9 27 9.4 NW 6 7 3 4 1015.0 1012.4 0.0
 
Date/Time
CST
Temp
°C
App
Temp
°C
Dew
Point
°C
Rel
Hum
%
Delta-T
°C
Wind Press
QNH
hPa
Press
MSL
hPa
Rain since
9am
mm
Dir  Spd
km/h
Gust
km/h
Spd
kts
Gust
kts
18/11:30pm 22.3 19.3 1.9 26 9.7 NW 7 7 4 4 1015.0 1012.4 0.0
18/11:00pm 23.9 20.8 0.3 21 11.1 NW 6 9 3 5 1015.0 1012.4 0.0
18/10:30pm 22.9 20.1 -0.6 21 10.7 ENE 4 7 2 4 1014.6 1011.9 0.0
18/10:00pm 26.4 21.8 -1.4 16 12.9 ESE 13 17 7 9 1014.4 1011.7 0.0
18/09:30pm 26.3 22.0 -1.5 16 12.8 ESE 11 11 6 6 1014.1 1011.4 0.0
18/09:00pm 27.0 23.1 -1.8 15 13.3 ESE 9 11 5 6 1013.7 1011.1 0.0
18/08:30pm 27.5 23.2 -1.4 15 13.5 ESE 11 15 6 8 1013.3 1010.7 0.0
18/08:00pm 26.0 23.3 -2.6 15 12.9 E 2 6 1 3 1012.8 1010.2 0.0
18/07:30pm 28.2 24.5 -2.8 13 14.2 E 7 9 4 5 1012.5 1009.8 0.0
18/07:00pm 30.1 25.7 -2.4 12 15.2 E 11 13 6 7 1012.2 1009.5 0.0
18/06:30pm 31.6 27.7 -1.2 12 15.8 E 9 13 5 7 1011.7 1009.0 0.0
18/06:00pm 32.8 27.8 -1.5 11 16.6 ESE 15 19 8 10 1011.4 1008.7 0.0
18/05:30pm 33.5 27.6 -1.0 11 16.9 ESE 20 28 11 15 1011.1 1008.5 0.0
18/05:00pm 33.8 28.5 -0.7 11 17.0 ESE 17 24 9 13 1010.9 1008.3 0.0
18/04:30pm 33.9 28.4 -2.0 10 17.4 ESE 17 32 9 17 1010.9 1008.3 0.0
18/04:00pm 34.3 29.2 -1.7 10 17.5 ESE 15 32 8 17 1010.9 1008.3 0.0
18/03:30pm 35.3 28.8 -2.3 9 18.3 ESE 22 35 12 19 1011.1 1008.5 0.0
18/03:00pm 34.8 28.3 -2.7 9 18.1 E 22 39 12 21 1011.5 1008.8 0.0
18/02:30pm 34.8 30.0 -2.7 9 18.1 SE 13 28 7 15 1011.8 1009.1 0.0
18/02:00pm 34.5 28.5 -2.9 9 17.9 ESE 19 35 10 19 1012.5 1009.8 0.0
18/01:30pm 34.3 28.1 -3.1 9 17.8 SE 20 39 11 21 1013.0 1010.4 0.0
18/01:00pm 34.0 26.6 -3.3 9 17.7 E 26 37 14 20 1013.4 1010.8 0.0
18/12:30pm 33.4 26.5 -2.3 10 17.1 ESE 24 39 13 21 1014.2 1011.5 0.0
18/12:00pm 33.6 27.5 -2.2 10 17.2 ENE 20 28 11 15 1014.9 1012.3 0.0
18/11:30am 32.7 25.6 -4.3 9 17.1 E 24 39 13 21 1015.5 1012.9 0.0
18/11:00am 31.8 25.3 -2.3 11 16.2 ENE 22 37 12 20 1016.0 1013.4 0.0
18/10:30am 31.1 25.2 1.4 15 14.9 ENE 22 35 12 19 1016.7 1014.0 0.0
18/10:00am 29.6 23.6 1.1 16 14.1 ENE 22 30 12 16 1017.0 1014.4 0.0
18/09:30am 29.3 25.4 5.4 22 12.7 ENE 15 20 8 11 1017.2 1014.6 0.0
18/09:00am 27.5 25.2 5.7 25 11.5 NE 7 13 4 7 1017.2 1014.6 0.0
18/08:30am 25.8 23.3 6.4 29 10.3 NNE 9 11 5 6 1016.9 1014.2 0.0
18/08:00am 24.4 23.6 6.6 32 9.4 CALM 0 0 0 0 1016.7 1014.0 0.0
18/07:30am 20.6 19.8 6.5 40 7.3 CALM 0 0 0 0 1016.5 1013.8 0.0
18/07:00am 17.7 16.9 6.3 47 5.7 CALM 0 0 0 0 1015.9 1013.3 0.0
18/06:30am 17.0 15.9 5.3 46 5.7 CALM 0 4 0 2 1015.6 1013.0 0.0
18/06:00am 17.2 15.2 6.1 48 5.5 W 6 9 3 5 1015.3 1012.7 0.0
18/05:30am 17.9 16.2 5.8 45 6.0 WNW 4 7 2 4 1014.8 1012.2 0.0
18/05:00am 17.6 15.3 5.9 46 5.8 NW 7 9 4 5 1014.6 1011.9 0.0
18/04:30am 18.3 16.9 5.5 43 6.4 WSW 2 6 1 3 1014.2 1011.5 0.0
18/04:00am 17.7 15.2 5.0 43 6.2 WNW 7 11 4 6 1014.0 1011.3 0.0
18/03:30am 18.9 17.3 4.3 38 7.1 E 2 6 1 3 1014.0 1011.3 0.0
18/03:00am 20.7 19.5 4.7 35 8.0 CALM 0 0 0 0 1013.9 1011.2 0.0
18/02:30am 22.8 19.3 5.3 32 8.9 ENE 13 19 7 10 1014.0 1011.3 0.0
18/02:00am 22.7 19.6 5.6 33 8.8 E 11 13 6 7 1014.2 1011.5 0.0
18/01:30am 23.3 19.9 6.1 33 8.9 E 13 19 7 10 1014.4 1011.7 0.0
18/01:00am 23.6 20.1 5.5 31 9.3 E 13 17 7 9 1014.7 1012.0 0.0
18/12:30am 23.7 20.0 4.6 29 9.7 E 13 17 7 9 1015.1 1012.5 0.0
18/12:00am 24.1 20.6 5.5 30 9.6 E 13 17 7 9 1015.3 1012.7 0.0
 
Date/Time
CST
Temp
°C
App
Temp
°C
Dew
Point
°C
Rel
Hum
%
Delta-T
°C
Wind Press
QNH
hPa
Press
MSL
hPa
Rain since
9am
mm
Dir  Spd
km/h
Gust
km/h
Spd
kts
Gust
kts
17/11:30pm 23.9 20.9 5.8 31 9.4 ESE 11 17 6 9 1015.5 1012.9 0.0
17/11:00pm 24.4 20.7 4.7 28 10.0 ESE 13 17 7 9 1015.4 1012.8 0.0
17/10:30pm 25.1 21.4 4.3 26 10.6 ESE 13 15 7 8 1015.4 1012.8 0.0
17/10:00pm 25.9 22.1 3.8 24 11.2 ESE 13 19 7 10 1015.3 1012.7 0.0
17/09:30pm 26.3 22.7 2.9 22 11.7 ESE 11 17 6 9 1015.0 1012.4 0.0
17/09:00pm 26.9 23.3 2.7 21 12.1 ESE 11 17 6 9 1014.8 1012.2 0.0
17/08:30pm 27.7 24.1 2.7 20 12.6 ESE 11 17 6 9 1014.5 1011.8 0.0
17/08:00pm 28.1 24.4 2.3 19 12.9 ESE 11 15 6 8 1014.2 1011.5 0.0
17/07:30pm 28.8 24.8 2.9 19 13.2 ESE 13 15 7 8 1013.7 1011.1 0.0
17/07:00pm 29.6 26.0 2.8 18 13.7 ESE 11 15 6 8 1013.3 1010.7 0.0
17/06:30pm 30.6 26.4 1.9 16 14.5 ESE 13 19 7 10 1012.8 1010.2 0.0
17/06:00pm 31.8 26.7 1.0 14 15.4 ESE 17 24 9 13 1012.4 1009.7 0.0
17/05:30pm 32.9 28.0 1.9 14 15.9 ESE 17 26 9 14 1012.1 1009.4 0.0
17/05:00pm 33.2 27.8 1.1 13 16.3 ESE 19 26 10 14 1011.8 1009.1 0.0
17/04:30pm 33.5 28.1 2.4 14 16.1 SE 20 30 11 16 1011.7 1009.0 0.0
17/04:00pm 33.4 28.2 3.3 15 15.8 E 20 32 11 17 1011.8 1009.1 0.0
17/03:30pm 33.8 28.2 3.6 15 16.0 ESE 22 37 12 20 1011.8 1009.1 0.0
17/03:00pm 33.1 27.6 2.1 14 16.0 ESE 20 33 11 18 1012.2 1009.5 0.0
17/02:30pm 33.2 26.6 2.1 14 16.0 ENE 26 35 14 19 1012.4 1009.7 0.0
17/02:00pm 32.9 26.1 2.9 15 15.6 ESE 28 39 15 21 1012.9 1010.3 0.0
17/01:30pm 33.4 26.5 2.3 14 16.1 E 28 46 15 25 1013.2 1010.6 0.0
17/01:27pm 33.4 26.5 2.3 14 16.1 E 28 46 15 25 1013.3 1010.7 0.0
17/01:00pm 33.1 26.5 2.1 14 15.9 E 26 41 14 22 1013.9 1011.2 0.0
17/12:30pm 32.5 25.2 2.5 15 15.5 E 30 44 16 24 1014.4 1011.7 0.0
17/12:00pm 32.7 27.5 3.6 16 15.3 ESE 20 35 11 19 1014.9 1012.3 0.0
17/11:30am 31.6 26.2 2.7 16 14.9 ESE 20 39 11 21 1015.3 1012.7 0.0
17/11:00am 30.2 23.8 3.3 18 13.9 ESE 26 33 14 18 1015.8 1013.2 0.0
17/10:30am 29.1 23.8 5.2 22 12.6 SE 22 32 12 17 1016.2 1013.6 0.0
17/10:00am 28.6 23.0 5.5 23 12.3 ESE 24 35 13 19 1016.2 1013.6 0.0
17/09:30am 27.5 23.1 7.4 28 10.9 ESE 20 28 11 15 1016.5 1013.8 0.0
17/09:00am 25.2 20.7 8.7 35 9.1 SE 22 28 12 15 1016.5 1013.8 0.0
17/08:30am 23.5 19.8 10.2 43 7.4 SE 20 30 11 16 1016.3 1013.7 0.0
17/08:00am 22.1 18.5 9.9 46 6.7 SE 19 26 10 14 1016.2 1013.6 0.0
17/07:30am 21.4 18.9 9.6 47 6.5 SE 13 20 7 11 1015.7 1013.1 0.0
17/07:00am 20.0 18.1 10.4 54 5.3 SE 11 13 6 7 1015.3 1012.7 0.0
17/06:30am 18.9 17.4 10.7 59 4.5 SE 9 11 5 6 1014.8 1012.2 0.0
17/06:00am 17.3 15.9 9.0 58 4.4 SE 6 7 3 4 1014.6 1011.9 0.0
17/05:30am 18.1 16.7 8.9 55 4.9 SE 6 7 3 4 1014.3 1011.6 0.0
17/05:00am 18.8 16.9 9.0 53 5.2 ESE 9 13 5 7 1014.0 1011.3 0.0
17/04:30am 18.1 16.0 8.4 53 5.1 ESE 9 11 5 6 1013.9 1011.2 0.0
17/04:00am 20.0 18.5 9.3 50 5.8 ESE 7 11 4 6 1013.9 1011.2 0.0
17/03:30am 20.5 19.1 10.9 54 5.4 ESE 9 11 5 6 1013.9 1011.2 0.0
17/03:00am 20.6 18.3 8.9 47 6.3 ESE 11 13 6 7 1014.0 1011.3 0.0
17/02:30am 22.1 19.7 9.9 46 6.7 ESE 13 15 7 8 1014.0 1011.3 0.0
17/02:00am 21.6 19.9 9.8 47 6.5 ESE 9 13 5 7 1014.2 1011.5 0.0
17/01:30am 22.6 20.6 8.7 41 7.5 ESE 9 13 5 7 1014.5 1011.8 0.0
17/01:00am 22.6 20.6 7.2 37 8.1 ESE 7 11 4 6 1014.9 1012.3 0.0
17/12:30am 23.7 21.1 7.8 36 8.5 ESE 11 13 6 7 1015.0 1012.4 0.0
17/12:00am 24.0 21.3 7.2 34 8.9 ESE 11 13 6 7 1015.3 1012.7 0.0
 
Date/Time
CST
Temp
°C
App
Temp
°C
Dew
Point
°C
Rel
Hum
%
Delta-T
°C
Wind Press
QNH
hPa
Press
MSL
hPa
Rain since
9am
mm
Dir  Spd
km/h
Gust
km/h
Spd
kts
Gust
kts
16/11:30pm 24.8 22.0 7.0 32 9.5 ESE 11 13 6 7 1015.6 1013.0 0.0
16/11:00pm 25.2 22.8 6.9 31 9.8 ESE 9 13 5 7 1015.6 1013.0 0.0
16/10:30pm 25.6 23.2 6.8 30 10.0 ESE 9 13 5 7 1015.6 1013.0 0.0
16/10:00pm 26.2 23.3 6.3 28 10.6 SE 11 15 6 8 1015.4 1012.8 0.0
16/09:30pm 26.9 24.0 6.3 27 11.0 ESE 11 13 6 7 1015.1 1012.5 0.0
16/09:00pm 27.7 24.3 5.9 25 11.6 E 13 17 7 9 1014.7 1012.0 0.0
16/08:30pm 28.2 25.5 5.7 24 11.9 E 9 13 5 7 1014.6 1011.9 0.0
16/08:00pm 29.0 25.6 5.8 23 12.4 E 13 15 7 8 1014.1 1011.4 0.0
16/07:30pm 29.6 26.3 6.3 23 12.6 E 13 19 7 10 1013.5 1010.9 0.0
16/07:00pm 30.4 26.3 6.3 22 13.1 E 17 22 9 12 1013.1 1010.5 0.0
16/06:30pm 31.1 26.6 6.2 21 13.6 E 19 26 10 14 1012.7 1010.1 0.0

Other Formats:

Comma delimited format used in spreadsheet applications
http://www.bom.gov.au/fwo/IDD60801/IDD60801.94141.axf

JavaScript Object Notation format (JSON) in row-major order
http://www.bom.gov.au/fwo/IDD60801/IDD60801.94141.json